Time;durP1;ratioP1;P1;durP2;ratioP2;P2;SDS_P1;SDS_P2;PMS_P1;PMS_P2;Temp;Humidity;BMP_temperature;BMP_pressure;BME280_temperature;BME280_humidity;BME280_pressure;Samples;Min_cycle;Max_cycle;Signal;HPM_P1;HPM_P2
2023/03/07 00:00:37;;;;;;;27.87;7.63;;;4.00;99.90;;;;;;5080197;28;20044;-82
2023/03/07 00:03:03;;;;;;;26.00;6.72;;;4.00;99.90;;;;;;5096857;28;20545;-83
2023/03/07 00:05:29;;;;;;;20.20;6.18;;;4.00;99.90;;;;;;5097477;28;20069;-82
2023/03/07 00:07:55;;;;;;;22.45;6.07;;;4.00;99.90;;;;;;5079016;28;20551;-83
2023/03/07 00:10:21;;;;;;;19.70;4.75;;;3.90;99.90;;;;;;5096297;28;20079;-81
2023/03/07 00:12:46;;;;;;;21.88;5.35;;;3.90;99.90;;;;;;5062255;28;20083;-84
2023/03/07 00:15:12;;;;;;;16.58;4.43;;;3.90;99.90;;;;;;5097883;28;20040;-82
2023/03/07 00:17:39;;;;;;;19.00;4.53;;;3.80;99.90;;;;;;5062672;28;20083;-80
2023/03/07 00:20:06;;;;;;;17.67;4.22;;;3.80;99.90;;;;;;5063324;28;20476;-82
2023/03/07 00:22:34;;;;;;;;;;;3.80;99.90;;;;;;5097526;28;20040;-84
2023/03/07 00:25:00;;;;;;;17.88;3.42;;;3.70;99.90;;;;;;5099094;28;19920;-82
2023/03/07 00:27:26;;;;;;;12.25;2.80;;;3.80;99.90;;;;;;5098395;28;20047;-82
2023/03/07 00:29:52;;;;;;;15.15;3.67;;;3.80;99.90;;;;;;5097389;28;20048;-84
2023/03/07 00:32:17;;;;;;;14.48;3.25;;;3.80;99.90;;;;;;5078723;28;20055;-83
2023/03/07 00:34:43;;;;;;;14.57;2.72;;;3.80;99.90;;;;;;5078269;28;20051;-82
2023/03/07 00:37:09;;;;;;;10.23;2.22;;;3.80;99.90;;;;;;5079449;28;20048;-82
2023/03/07 00:39:34;;;;;;;9.38;1.98;;;3.70;99.90;;;;;;5107790;28;20044;-84
2023/03/07 00:42:00;;;;;;;10.82;2.40;;;3.70;99.90;;;;;;5089419;28;20055;-84
2023/03/07 00:44:28;;;;;;;10.73;2.00;;;3.80;99.90;;;;;;5082711;28;20044;-84
2023/03/07 00:46:55;;;;;;;9.50;2.13;;;3.70;99.90;;;;;;5097933;28;20051;-80
2023/03/07 00:49:21;;;;;;;10.17;2.53;;;3.80;99.90;;;;;;5063300;28;20044;-81
2023/03/07 00:51:47;;;;;;;11.63;2.50;;;3.80;99.90;;;;;;5096781;28;20278;-82
2023/03/07 00:54:13;;;;;;;13.07;2.33;;;3.70;99.90;;;;;;5096327;28;20051;-81
2023/03/07 00:56:39;;;;;;;9.13;1.73;;;3.70;99.90;;;;;;5095630;28;20121;-79
2023/03/07 00:59:05;;;;;;;11.32;2.38;;;3.80;99.90;;;;;;5077760;28;20044;-81
2023/03/07 01:01:31;;;;;;;14.30;2.10;;;3.70;99.90;;;;;;5095408;28;20055;-82
2023/03/07 01:03:57;;;;;;;11.43;1.88;;;3.70;99.90;;;;;;5077322;28;20044;-82
2023/03/07 01:06:25;;;;;;;10.38;1.88;;;3.70;99.90;;;;;;5076831;28;20048;-82
2023/03/07 01:08:51;;;;;;;9.88;1.30;;;3.70;99.90;;;;;;5076987;28;20206;-82
2023/03/07 01:11:17;;;;;;;12.82;3.30;;;3.60;99.90;;;;;;5094858;28;20058;-79
2023/03/07 01:13:43;;;;;;;11.13;1.20;;;3.70;99.90;;;;;;5095741;28;20407;-78
2023/03/07 01:16:21;;;;;;;10.10;1.52;;;3.60;99.90;;;;;;5095183;28;20048;-80
2023/03/07 01:18:52;;;;;;;8.82;1.13;;;3.60;99.90;;;;;;5077875;28;20100;-82
2023/03/07 01:21:21;;;;;;;5.70;0.93;;;3.60;99.90;;;;;;5077130;28;20590;-81
2023/03/07 01:23:47;;;;;;;9.13;1.05;;;3.60;99.90;;;;;;5077358;28;20055;-79
2023/03/07 01:26:21;;;;;;;8.98;1.30;;;3.50;99.90;;;;;;5076945;28;20052;-80
2023/03/07 01:28:48;;;;;;;8.80;1.08;;;3.50;99.90;;;;;;5077667;28;20047;-80
2023/03/07 01:31:14;;;;;;;10.95;1.00;;;3.60;99.90;;;;;;5081793;28;20040;-80
2023/03/07 01:33:40;;;;;;;6.80;0.88;;;3.60;99.90;;;;;;5100068;28;20058;-80
2023/03/07 01:36:19;;;;;;;3.15;0.70;;;3.50;99.90;;;;;;5082006;28;20040;-80
2023/03/07 01:38:48;;;;;;;6.75;0.80;;;3.40;99.90;;;;;;5082945;28;20201;-82
2023/03/07 01:41:15;;;;;;;6.40;0.80;;;3.50;99.90;;;;;;5046156;28;20146;-81
2023/03/07 01:43:41;;;;;;;8.43;1.00;;;3.40;99.90;;;;;;5095447;28;20044;-79
2023/03/07 01:46:16;;;;;;;6.68;0.95;;;3.50;99.90;;;;;;5076822;28;20044;-80
2023/03/07 01:48:58;;;;;;;6.03;1.10;;;3.50;99.90;;;;;;5095012;28;20040;-81
2023/03/07 01:51:25;;;;;;;6.10;1.10;;;3.50;99.90;;;;;;5094976;28;20391;-78
2023/03/07 01:53:53;;;;;;;6.88;1.50;;;3.50;99.90;;;;;;5094185;28;20083;-80
2023/03/07 01:56:21;;;;;;;5.45;1.00;;;3.40;99.90;;;;;;5093575;28;20050;-80
2023/03/07 01:58:46;;;;;;;;;;;3.30;99.90;;;;;;5094755;28;20119;-78
2023/03/07 02:01:13;;;;;;;11.30;1.45;;;3.30;99.90;;;;;;5096807;28;19951;-82
2023/03/07 02:03:56;;;;;;;10.45;1.33;;;3.20;99.90;;;;;;5064882;28;20135;-80
2023/03/07 02:06:23;;;;;;;4.95;1.10;;;3.20;99.90;;;;;;5085895;28;20044;-80
2023/03/07 02:08:51;;;;;;;11.18;2.17;;;3.20;99.90;;;;;;5086432;28;20083;-78
2023/03/07 02:11:17;;;;;;;15.10;2.00;;;3.10;99.90;;;;;;5068227;28;20051;-81
2023/03/07 02:13:43;;;;;;;9.55;1.65;;;3.00;99.90;;;;;;5099123;28;20378;-78
2023/03/07 02:16:10;;;;;;;11.35;1.48;;;3.00;99.90;;;;;;5095603;28;20045;-79
2023/03/07 02:18:43;;;;;;;11.13;2.35;;;2.90;99.90;;;;;;5095323;28;20060;-80
2023/03/07 02:21:39;;;;;;;9.82;1.20;;;2.90;99.90;;;;;;5099799;28;20075;-78
2023/03/07 02:24:25;;;;;;;12.50;1.80;;;2.80;99.90;;;;;;5085500;28;20091;-80
2023/03/07 02:26:52;;;;;;;9.02;1.48;;;2.80;99.90;;;;;;5085103;28;20048;-77
2023/03/07 02:29:18;;;;;;;10.02;1.33;;;2.70;99.90;;;;;;5086696;28;20056;-81
2023/03/07 02:31:44;;;;;;;11.35;1.73;;;2.70;99.90;;;;;;5082601;28;20574;-80
2023/03/07 02:34:22;;;;;;;11.85;1.38;;;2.60;99.90;;;;;;5094046;28;20518;-81
2023/03/07 02:36:55;;;;;;;13.10;1.58;;;2.70;99.90;;;;;;5093698;28;20492;-81
2023/03/07 02:39:24;;;;;;;9.85;1.52;;;2.60;99.90;;;;;;5094553;28;20122;-79
2023/03/07 02:41:54;;;;;;;8.98;1.38;;;2.50;99.90;;;;;;5060022;28;20123;-78
2023/03/07 02:44:20;;;;;;;12.38;1.40;;;2.50;99.90;;;;;;5093916;28;20392;-79
2023/03/07 02:46:46;;;;;;;10.82;1.75;;;2.50;99.90;;;;;;5042767;28;20078;-80
2023/03/07 02:49:12;;;;;;;10.85;0.90;;;2.60;99.90;;;;;;5059030;28;20377;-78
2023/03/07 02:51:38;;;;;;;9.40;0.98;;;2.50;99.90;;;;;;5075671;28;20052;-78
2023/03/07 02:54:04;;;;;;;17.60;1.10;;;2.70;99.90;;;;;;5075210;28;20122;-82
2023/03/07 02:56:30;;;;;;;10.70;1.52;;;2.60;99.90;;;;;;5075279;28;20051;-79
2023/03/07 02:58:55;;;;;;;13.70;1.40;;;2.70;99.90;;;;;;5058794;28;20127;-79
2023/03/07 03:01:21;;;;;;;9.13;0.77;;;2.60;99.90;;;;;;5075501;28;20076;-78
2023/03/07 03:03:47;;;;;;;11.60;0.77;;;2.60;99.90;;;;;;5059687;28;20051;-79
2023/03/07 03:06:13;;;;;;;10.15;0.75;;;2.70;99.90;;;;;;5093894;28;20083;-80
2023/03/07 03:08:38;;;;;;;15.90;0.70;;;2.60;99.90;;;;;;5096320;28;20059;-80
2023/03/07 03:11:04;;;;;;;13.68;0.95;;;2.60;99.90;;;;;;5078957;28;20086;-79
2023/03/07 03:13:30;;;;;;;23.85;1.92;;;2.60;99.90;;;;;;5078742;28;20051;-82
2023/03/07 03:15:57;;;;;;;16.33;0.93;;;2.60;99.90;;;;;;5078783;28;20477;-80
2023/03/07 03:18:26;;;;;;;16.77;1.02;;;2.60;99.90;;;;;;5096379;28;20527;-80
2023/03/07 03:20:51;;;;;;;15.77;1.45;;;2.50;99.90;;;;;;5097054;28;20047;-77
2023/03/07 03:23:17;;;;;;;13.52;1.20;;;2.50;99.90;;;;;;5096500;28;20082;-81
2023/03/07 03:25:43;;;;;;;14.43;2.17;;;2.50;99.90;;;;;;5062414;28;20051;-78
2023/03/07 03:28:09;;;;;;;13.02;0.98;;;2.50;99.90;;;;;;5079000;28;20048;-79
2023/03/07 03:30:35;;;;;;;10.70;1.20;;;2.50;99.90;;;;;;5079267;28;20079;-80
2023/03/07 03:33:02;;;;;;;16.17;1.33;;;2.50;99.90;;;;;;5097028;28;20046;-81
2023/03/07 03:35:28;;;;;;;16.50;1.40;;;2.50;99.90;;;;;;5078708;28;20561;-77
2023/03/07 03:37:54;;;;;;;10.30;1.20;;;2.50;99.90;;;;;;5045971;28;20040;-78
2023/03/07 03:40:20;;;;;;;9.07;0.95;;;2.50;99.90;;;;;;5096970;28;20059;-81
2023/03/07 03:42:46;;;;;;;16.42;1.38;;;2.50;99.90;;;;;;5078270;28;20121;-80
2023/03/07 03:45:13;;;;;;;13.13;1.65;;;2.50;99.90;;;;;;5096280;28;20044;-78
2023/03/07 03:47:39;;;;;;;15.13;1.77;;;2.60;99.90;;;;;;5061698;28;20052;-78
2023/03/07 03:50:05;;;;;;;22.17;1.60;;;2.70;99.90;;;;;;5078183;28;20040;-78
2023/03/07 03:52:33;;;;;;;8.40;1.67;;;2.70;99.90;;;;;;5097222;28;20564;-82
2023/03/07 03:54:59;;;;;;;16.02;2.25;;;2.80;99.90;;;;;;5100074;28;20047;-76
2023/03/07 03:57:25;;;;;;;13.38;2.17;;;2.80;99.90;;;;;;5080550;28;20044;-80
2023/03/07 03:59:50;;;;;;;18.42;1.02;;;2.80;99.90;;;;;;5082891;28;20118;-77
2023/03/07 04:02:16;;;;;;;19.33;1.95;;;2.90;99.90;;;;;;5082210;28;20411;-80
2023/03/07 04:04:42;;;;;;;12.20;0.90;;;2.90;99.90;;;;;;5079405;28;20054;-79
2023/03/07 04:07:07;;;;;;;21.33;1.50;;;2.90;99.90;;;;;;5078061;28;20044;-79
2023/03/07 04:09:33;;;;;;;13.05;1.00;;;2.90;99.90;;;;;;5061184;28;20052;-78
2023/03/07 04:12:00;;;;;;;17.10;1.75;;;2.90;99.90;;;;;;5096228;28;20044;-79
2023/03/07 04:14:25;;;;;;;24.30;1.63;;;2.80;99.90;;;;;;5077737;28;20125;-78
2023/03/07 04:16:51;;;;;;;15.50;1.10;;;3.00;99.90;;;;;;5060822;28;20484;-79
2023/03/07 04:19:17;;;;;;;16.13;1.08;;;3.00;99.90;;;;;;5094695;28;20047;-78
2023/03/07 04:21:42;;;;;;;17.75;1.13;;;3.00;99.90;;;;;;5095890;28;20582;-78
2023/03/07 04:24:08;;;;;;;20.75;1.73;;;3.00;99.90;;;;;;5077779;28;20369;-78
2023/03/07 04:26:35;;;;;;;10.43;0.80;;;3.00;99.90;;;;;;5096112;28;20083;-78
2023/03/07 04:29:01;;;;;;;14.05;1.17;;;3.10;99.90;;;;;;5095502;28;20044;-78
2023/03/07 04:31:28;;;;;;;9.50;1.45;;;3.10;99.90;;;;;;5095300;28;20044;-77
2023/03/07 04:33:55;;;;;;;18.20;1.10;;;3.10;99.90;;;;;;5077932;28;20524;-78
2023/03/07 04:36:22;;;;;;;18.17;1.40;;;3.00;99.90;;;;;;5060549;28;20631;-80
2023/03/07 04:38:49;;;;;;;24.52;1.67;;;3.10;99.90;;;;;;5077968;28;20051;-78
2023/03/07 04:41:20;;;;;;;13.93;1.58;;;3.20;99.90;;;;;;5076828;28;20044;-79
2023/03/07 04:43:46;;;;;;;20.80;1.35;;;3.00;99.90;;;;;;5095598;28;20044;-77
2023/03/07 04:46:13;;;;;;;17.50;1.58;;;3.10;99.90;;;;;;5094790;28;20520;-79
2023/03/07 04:48:40;;;;;;;17.52;1.55;;;3.10;99.90;;;;;;5061329;28;20052;-78
2023/03/07 04:51:06;;;;;;;13.68;0.90;;;3.00;99.90;;;;;;5060528;28;20140;-79
2023/03/07 04:53:31;;;;;;;16.90;0.95;;;3.00;99.90;;;;;;5060601;28;20151;-79
2023/03/07 04:56:02;;;;;;;16.55;1.15;;;2.90;99.90;;;;;;5060251;28;20051;-78
2023/03/07 04:58:28;;;;;;;19.52;1.00;;;2.90;99.90;;;;;;5077295;28;20541;-79
2023/03/07 05:00:55;;;;;;;15.70;1.00;;;2.80;99.90;;;;;;5094772;28;20083;-78
2023/03/07 05:03:22;;;;;;;22.15;0.80;;;2.70;99.90;;;;;;5059947;28;20056;-78
2023/03/07 05:05:48;;;;;;;14.43;1.10;;;2.70;99.90;;;;;;5077286;28;20084;-80
2023/03/07 05:08:14;;;;;;;24.23;1.15;;;2.80;99.90;;;;;;5077333;28;20353;-79
2023/03/07 05:10:40;;;;;;;28.08;1.20;;;2.70;99.90;;;;;;5076740;28;20399;-79
2023/03/07 05:13:07;;;;;;;20.60;1.00;;;2.70;99.90;;;;;;5076301;28;20084;-79
2023/03/07 05:15:33;;;;;;;9.88;0.70;;;2.70;99.90;;;;;;5076682;28;20282;-79
2023/03/07 05:17:59;;;;;;;14.23;0.95;;;2.70;99.90;;;;;;5076538;28;20039;-79
2023/03/07 05:20:25;;;;;;;11.38;1.35;;;2.70;99.90;;;;;;5076349;28;20063;-80
2023/03/07 05:22:51;;;;;;;17.38;1.00;;;2.70;99.90;;;;;;5075998;28;20044;-80
2023/03/07 05:25:17;;;;;;;18.98;1.00;;;2.70;99.90;;;;;;5060489;28;20509;-78
2023/03/07 05:27:43;;;;;;;14.15;1.60;;;2.70;99.90;;;;;;5076721;28;20106;-79
2023/03/07 05:30:10;;;;;;;25.17;1.23;;;2.70;99.90;;;;;;5094589;28;20354;-78
2023/03/07 05:32:36;;;;;;;15.65;0.90;;;2.70;99.90;;;;;;5076284;28;20040;-81
2023/03/07 05:35:02;;;;;;;16.90;0.98;;;2.60;99.90;;;;;;5059735;28;20113;-78
2023/03/07 05:37:28;;;;;;;11.50;0.73;;;2.70;99.90;;;;;;5093925;28;20044;-78
2023/03/07 05:39:53;;;;;;;13.95;0.52;;;2.70;99.90;;;;;;5094264;28;20051;-78
2023/03/07 05:42:19;;;;;;;14.32;0.80;;;2.70;99.90;;;;;;5093760;28;20040;-79
2023/03/07 05:44:45;;;;;;;9.63;1.20;;;2.70;99.90;;;;;;5094814;28;20054;-77
2023/03/07 05:47:10;;;;;;;12.02;0.82;;;2.70;99.90;;;;;;5094168;28;20044;-78
2023/03/07 05:49:36;;;;;;;16.35;1.50;;;2.70;99.90;;;;;;5059223;28;20372;-77
2023/03/07 05:52:02;;;;;;;12.30;1.25;;;2.70;99.90;;;;;;5075875;28;20123;-78
2023/03/07 05:54:27;;;;;;;15.52;0.85;;;2.70;99.90;;;;;;5094101;28;20044;-79
2023/03/07 05:56:53;;;;;;;11.02;0.68;;;2.70;99.90;;;;;;5059273;28;20445;-77
2023/03/07 05:59:19;;;;;;;18.45;1.10;;;2.80;99.90;;;;;;5075454;28;20044;-77
2023/03/07 06:01:44;;;;;;;15.35;1.10;;;2.80;99.90;;;;;;5059010;28;20135;-77
2023/03/07 06:04:10;;;;;;;14.93;1.90;;;2.80;99.90;;;;;;5059301;28;20044;-77
2023/03/07 06:06:36;;;;;;;18.90;1.20;;;2.80;99.90;;;;;;5076355;28;20044;-80
2023/03/07 06:09:04;;;;;;;13.60;1.50;;;2.90;99.90;;;;;;5059617;28;20051;-78
2023/03/07 06:11:30;;;;;;;9.10;1.27;;;2.80;99.90;;;;;;5059588;28;20048;-77
2023/03/07 06:13:56;;;;;;;7.60;0.80;;;2.90;99.90;;;;;;5059578;28;20088;-77
2023/03/07 06:16:22;;;;;;;9.93;0.80;;;2.90;99.90;;;;;;5059421;28;20055;-77
2023/03/07 06:18:47;;;;;;;15.90;1.15;;;2.90;99.90;;;;;;5094280;28;20043;-79
2023/03/07 06:21:16;;;;;;;12.48;0.95;;;3.00;99.90;;;;;;5075538;28;20040;-78
2023/03/07 06:23:42;;;;;;;12.38;1.13;;;3.10;99.90;;;;;;5075353;28;20067;-75
2023/03/07 06:26:09;;;;;;;18.10;1.10;;;3.00;99.90;;;;;;5076254;28;20384;-76
2023/03/07 06:28:35;;;;;;;11.57;1.42;;;3.00;99.90;;;;;;5075302;28;20040;-78
2023/03/07 06:31:08;;;;;;;18.98;1.33;;;3.00;99.90;;;;;;5075480;28;20094;-77
2023/03/07 06:33:34;;;;;;;17.88;1.48;;;3.10;99.90;;;;;;5093420;28;20095;-75
2023/03/07 06:36:04;;;;;;;27.95;2.33;;;3.10;99.90;;;;;;5058817;28;20064;-75
2023/03/07 06:38:30;;;;;;;12.07;0.82;;;3.20;99.90;;;;;;5075795;28;20081;-75
2023/03/07 06:40:56;;;;;;;23.05;1.30;;;3.20;99.90;;;;;;5075427;28;20040;-75
2023/03/07 06:43:21;;;;;;;12.18;0.85;;;3.20;99.90;;;;;;5077561;28;20040;-76
2023/03/07 06:45:47;;;;;;;17.23;1.23;;;3.20;99.90;;;;;;5097606;28;20043;-76
2023/03/07 06:48:13;;;;;;;28.00;1.75;;;3.30;99.90;;;;;;5079646;28;20059;-76
2023/03/07 06:50:38;;;;;;;23.77;1.30;;;3.20;99.90;;;;;;5063364;28;20135;-75
2023/03/07 06:53:04;;;;;;;16.23;1.63;;;3.20;99.90;;;;;;5097194;28;20107;-75
2023/03/07 06:55:30;;;;;;;15.73;1.40;;;3.30;99.90;;;;;;5096809;28;20048;-77
2023/03/07 06:57:55;;;;;;;21.88;1.60;;;3.30;99.90;;;;;;5096749;28;20051;-76
2023/03/07 07:00:21;;;;;;;22.02;1.58;;;3.30;99.90;;;;;;5097174;28;20044;-75
2023/03/07 07:02:48;;;;;;;6.15;0.40;;;3.20;99.90;;;;;;5078616;28;20040;-77
2023/03/07 07:05:14;;;;;;;17.20;0.63;;;2.90;99.90;;;;;;5097081;28;20640;-76
2023/03/07 07:07:40;;;;;;;5.80;0.47;;;2.70;99.90;;;;;;5078923;28;20122;-77
2023/03/07 07:10:06;;;;;;;6.28;0.40;;;2.50;99.90;;;;;;5096806;28;20048;-76
2023/03/07 07:12:32;;;;;;;6.85;0.80;;;2.40;99.90;;;;;;5078712;28;20521;-74
2023/03/07 07:15:00;;;;;;;6.85;0.50;;;2.40;99.90;;;;;;5079632;28;20056;-74
2023/03/07 07:17:27;;;;;;;3.80;0.30;;;2.40;99.90;;;;;;5078810;28;20056;-76
2023/03/07 07:19:53;;;;;;;5.75;0.38;;;2.30;99.90;;;;;;5096492;28;20044;-76
2023/03/07 07:22:19;;;;;;;12.85;0.40;;;2.30;99.90;;;;;;5078275;28;20098;-75
2023/03/07 07:24:45;;;;;;;12.75;0.70;;;2.40;99.90;;;;;;5096969;28;20091;-75
2023/03/07 07:27:10;;;;;;;9.15;0.82;;;2.40;99.90;;;;;;5078739;28;20464;-76
2023/03/07 07:29:36;;;;;;;7.38;0.40;;;2.50;99.90;;;;;;5078414;28;20059;-78
2023/03/07 07:32:02;;;;;;;9.13;0.80;;;2.50;99.90;;;;;;5096220;28;20066;-75
2023/03/07 07:34:28;;;;;;;7.47;0.50;;;2.50;99.90;;;;;;5078474;28;20135;-76
2023/03/07 07:36:53;;;;;;;9.93;0.70;;;2.50;99.90;;;;;;5078283;28;20423;-75
2023/03/07 07:39:20;;;;;;;7.53;0.70;;;2.60;99.90;;;;;;5096203;28;20048;-74
2023/03/07 07:41:46;;;;;;;14.20;1.02;;;2.70;99.90;;;;;;5078414;28;20062;-76
2023/03/07 07:44:12;;;;;;;15.95;0.80;;;2.60;99.90;;;;;;5045544;28;20051;-76
2023/03/07 07:46:38;;;;;;;17.13;1.27;;;2.60;99.90;;;;;;5096495;28;20044;-77
2023/03/07 07:49:04;;;;;;;22.45;0.90;;;2.50;99.90;;;;;;5096258;28;20044;-77
2023/03/07 07:51:29;;;;;;;7.10;0.65;;;2.50;99.90;;;;;;5078709;28;20055;-78
2023/03/07 07:53:55;;;;;;;10.38;1.05;;;2.40;99.90;;;;;;5096057;28;20056;-78
2023/03/07 07:56:21;;;;;;;9.10;0.77;;;2.30;99.90;;;;;;5079465;28;20046;-79
2023/03/07 07:58:47;;;;;;;6.93;0.40;;;2.30;99.90;;;;;;5079878;28;20083;-81
2023/03/07 08:01:13;;;;;;;9.15;1.02;;;2.30;99.90;;;;;;5097767;28;20044;-80
2023/03/07 08:03:39;;;;;;;12.20;0.65;;;2.30;99.90;;;;;;5079719;28;20048;-79
2023/03/07 08:06:05;;;;;;;16.02;1.17;;;2.30;99.90;;;;;;5079174;28;20450;-82
2023/03/07 08:08:31;;;;;;;16.92;0.80;;;2.40;99.90;;;;;;5062392;28;20052;-80
2023/03/07 08:10:57;;;;;;;16.60;0.75;;;2.40;99.90;;;;;;5078987;28;20118;-82
2023/03/07 08:13:23;;;;;;;10.90;0.77;;;2.50;99.90;;;;;;5097073;28;20469;-79
2023/03/07 08:15:48;;;;;;;12.32;0.60;;;2.60;99.90;;;;;;5045481;28;20387;-78
2023/03/07 08:18:14;;;;;;;10.93;0.68;;;2.60;99.90;;;;;;5061542;28;20472;-81
2023/03/07 08:20:40;;;;;;;7.95;0.45;;;2.70;99.90;;;;;;5061152;28;20051;-80
2023/03/07 08:23:07;;;;;;;9.20;0.70;;;2.70;99.90;;;;;;5061350;28;20134;-79
2023/03/07 08:25:33;;;;;;;10.43;0.60;;;2.80;99.90;;;;;;5062259;28;20495;-80
2023/03/07 08:28:01;;;;;;;7.53;0.60;;;2.80;99.90;;;;;;5061424;28;20047;-80
2023/03/07 08:30:29;;;;;;;12.18;0.90;;;2.90;99.90;;;;;;5097116;28;20052;-78
2023/03/07 08:32:55;;;;;;;11.27;0.90;;;2.90;99.90;;;;;;5098928;28;20039;-78
2023/03/07 08:35:22;;;;;;;10.93;1.58;;;2.90;99.90;;;;;;5079842;28;20396;-77
2023/03/07 08:37:48;;;;;;;13.98;0.80;;;3.00;99.90;;;;;;5097478;28;20043;-78
2023/03/07 08:40:15;;;;;;;10.45;1.05;;;3.10;99.90;;;;;;5078625;28;20054;-78
2023/03/07 08:42:43;;;;;;;13.80;1.50;;;3.10;99.90;;;;;;5096223;28;20040;-78
2023/03/07 08:45:09;;;;;;;9.65;1.05;;;3.10;99.90;;;;;;5077945;28;20380;-79
2023/03/07 08:47:35;;;;;;;11.38;0.68;;;3.10;99.90;;;;;;5078021;28;20044;-81
2023/03/07 08:50:01;;;;;;;11.00;0.70;;;3.20;99.90;;;;;;5061093;28;20500;-77
2023/03/07 08:52:27;;;;;;;9.90;1.17;;;3.20;99.90;;;;;;5077342;28;20044;-80
2023/03/07 08:54:53;;;;;;;9.27;0.70;;;3.20;99.90;;;;;;5077534;28;20070;-76
2023/03/07 08:57:18;;;;;;;13.93;1.35;;;3.30;99.90;;;;;;5095925;28;20516;-81
2023/03/07 08:59:44;;;;;;;10.75;0.52;;;3.40;99.90;;;;;;5078302;28;20454;-83
2023/03/07 09:02:10;;;;;;;12.30;0.65;;;3.60;99.90;;;;;;5044414;28;20043;-77
2023/03/07 09:04:37;;;;;;;20.20;1.03;;;3.60;99.90;;;;;;5077931;28;20097;-78
2023/03/07 09:07:03;;;;;;;12.75;1.20;;;3.60;99.90;;;;;;5077264;28;20279;-79
2023/03/07 09:09:30;;;;;;;12.73;0.80;;;3.70;99.90;;;;;;5028225;28;20059;-80
2023/03/07 09:11:56;;;;;;;11.63;0.90;;;3.70;99.90;;;;;;5077898;28;20044;-82
2023/03/07 09:14:22;;;;;;;8.90;2.28;;;3.70;99.90;;;;;;5062664;28;20372;-83
2023/03/07 09:16:48;;;;;;;14.45;0.82;;;3.80;99.90;;;;;;5060931;28;20044;-81
2023/03/07 09:19:14;;;;;;;13.38;1.60;;;3.80;99.90;;;;;;5043815;28;20400;-80
2023/03/07 09:21:39;;;;;;;12.00;0.70;;;4.00;99.90;;;;;;5076598;28;20146;-82
2023/03/07 09:24:06;;;;;;;13.95;0.98;;;4.00;99.90;;;;;;5062860;28;20059;-85
2023/03/07 09:26:32;;;;;;;15.02;1.17;;;3.90;99.90;;;;;;5054877;28;20076;-81
2023/03/07 09:28:58;;;;;;;13.73;1.52;;;4.00;99.90;;;;;;5037079;28;20045;-78
2023/03/07 09:31:24;;;;;;;12.75;1.02;;;4.00;99.90;;;;;;5053357;28;20053;-79
2023/03/07 09:33:51;;;;;;;15.27;1.48;;;4.10;99.90;;;;;;5054144;28;20044;-81
2023/03/07 09:36:18;;;;;;;27.90;7.67;;;4.20;99.90;;;;;;5053701;28;20055;-79
2023/03/07 09:38:45;;;;;;;;;;;4.20;99.90;;;;;;5037570;28;20764;-78
2023/03/07 09:41:19;;;;;;;14.82;1.17;;;4.30;99.90;;;;;;5054526;28;19920;-80
2023/03/07 09:44:12;;;;;;;10.77;1.13;;;4.40;99.90;;;;;;5056298;28;20129;-86
2023/03/07 09:47:15;;;;;;;12.98;1.30;;;4.50;99.90;;;;;;5040386;28;20109;-79
2023/03/07 09:49:45;;;;;;;13.68;1.55;;;4.50;99.90;;;;;;5037436;28;20053;-79
2023/03/07 09:52:14;;;;;;;17.88;1.40;;;4.60;99.90;;;;;;5037469;28;20098;-80
2023/03/07 09:55:05;;;;;;;27.38;1.75;;;4.50;99.90;;;;;;5038356;28;20049;-79
2023/03/07 09:57:35;;;;;;;17.77;2.67;;;4.60;99.90;;;;;;5054542;28;20063;-76
2023/03/07 10:00:13;;;;;;;11.75;0.90;;;4.70;99.90;;;;;;5055404;28;20044;-79
2023/03/07 10:02:49;;;;;;;20.27;2.58;;;4.60;99.90;;;;;;5056008;28;20120;-80
2023/03/07 10:05:43;;;;;;;27.90;5.70;;;4.60;99.90;;;;;;5055474;28;20041;-79
2023/03/07 10:08:16;;;;;;;20.67;1.95;;;4.70;99.90;;;;;;5055753;28;20501;-79
2023/03/07 10:10:51;;;;;;;17.02;1.33;;;4.90;99.90;;;;;;5057470;28;20445;-79
2023/03/07 10:13:39;;;;;;;17.75;1.23;;;5.00;99.90;;;;;;5057029;28;20049;-80
2023/03/07 10:16:36;;;;;;;19.83;1.83;;;5.10;99.90;;;;;;5059104;28;20044;-82
2023/03/07 10:19:11;;;;;;;15.45;1.83;;;5.10;99.90;;;;;;5058856;28;20109;-76
2023/03/07 10:21:43;;;;;;;15.00;1.60;;;5.00;99.90;;;;;;5056765;28;20037;-82
2023/03/07 10:24:18;;;;;;;16.67;1.42;;;5.00;99.90;;;;;;5039772;28;20057;-77
2023/03/07 10:26:56;;;;;;;13.18;1.77;;;4.90;99.90;;;;;;5060137;28;20064;-80
2023/03/07 10:29:27;;;;;;;17.13;2.20;;;4.70;99.90;;;;;;5066270;28;20037;-78
2023/03/07 10:32:29;;;;;;;14.65;2.42;;;4.50;99.90;;;;;;5047099;28;20400;-80
2023/03/07 10:35:23;;;;;;;12.85;2.08;;;4.50;99.90;;;;;;5065555;28;20049;-80
2023/03/07 10:38:02;;;;;;;23.05;2.67;;;4.30;99.90;;;;;;5061639;28;20049;-79
2023/03/07 10:40:38;;;;;;;17.55;2.72;;;4.30;99.90;;;;;;5061391;28;20048;-81
2023/03/07 10:43:05;;;;;;;21.33;2.72;;;4.40;99.90;;;;;;5047748;28;20049;-79
2023/03/07 10:45:32;;;;;;;16.73;2.73;;;4.50;99.90;;;;;;5066627;28;20052;-79
2023/03/07 10:48:05;;;;;;;16.55;3.13;;;4.50;99.90;;;;;;5046946;28;20097;-77
2023/03/07 10:50:45;;;;;;;9.55;1.63;;;4.60;99.90;;;;;;5061185;28;20075;-76
2023/03/07 10:53:22;;;;;;;15.02;2.00;;;4.60;99.90;;;;;;5044560;28;20136;-78
2023/03/07 10:55:48;;;;;;;12.43;1.55;;;4.80;99.90;;;;;;5063176;28;20056;-80
2023/03/07 10:58:27;;;;;;;9.07;1.02;;;4.90;99.90;;;;;;5060579;28;20041;-78
2023/03/07 11:01:13;;;;;;;13.48;0.80;;;4.80;99.90;;;;;;5039797;28;20048;-79
2023/03/07 11:03:53;;;;;;;7.00;0.73;;;5.00;99.90;;;;;;5058865;28;20075;-81
2023/03/07 11:06:35;;;;;;;14.10;1.42;;;5.00;99.90;;;;;;5056070;28;20045;-79
2023/03/07 11:09:30;;;;;;;15.70;1.33;;;5.10;99.90;;;;;;5041089;28;20056;-77
2023/03/07 11:12:11;;;;;;;20.52;0.93;;;5.20;99.90;;;;;;5039055;28;20354;-77
2023/03/07 11:14:51;;;;;;;14.00;1.10;;;5.30;99.90;;;;;;5056604;28;20041;-84
2023/03/07 11:17:46;;;;;;;11.02;1.00;;;5.40;99.90;;;;;;5058622;28;20120;-81
2023/03/07 11:20:48;;;;;;;10.38;1.10;;;5.40;99.90;;;;;;5052147;28;20064;-79
2023/03/07 11:23:23;;;;;;;13.52;1.23;;;5.60;99.90;;;;;;5039029;28;20122;-78
2023/03/07 11:25:54;;;;;;;14.73;1.48;;;5.60;99.90;;;;;;5056538;28;20056;-80
2023/03/07 11:28:32;;;;;;;14.57;1.77;;;5.60;99.90;;;;;;5054753;28;20044;-79
2023/03/07 11:31:12;;;;;;;16.92;1.88;;;5.70;99.90;;;;;;5040693;28;20045;-82
2023/03/07 11:33:54;;;;;;;17.33;2.90;;;5.70;99.90;;;;;;5058258;28;20041;-85
2023/03/07 11:36:42;;;;;;;23.08;3.15;;;5.90;99.90;;;;;;5040157;28;20164;-82
2023/03/07 11:39:20;;;;;;;15.45;2.42;;;6.00;99.90;;;;;;5060611;28;20041;-82
2023/03/07 11:41:52;;;;;;;17.80;2.70;;;6.00;99.90;;;;;;5058752;28;20037;-80
2023/03/07 11:44:20;;;;;;;21.02;3.30;;;6.10;99.90;;;;;;5043983;28;20052;-78
2023/03/07 11:47:01;;;;;;;28.08;2.72;;;6.20;99.90;;;;;;5043723;28;20071;-79
2023/03/07 11:49:44;;;;;;;14.68;1.67;;;6.10;99.90;;;;;;5060328;28;20102;-80
2023/03/07 11:52:28;;;;;;;8.75;1.15;;;5.90;99.90;;;;;;5060247;28;20048;-79
2023/03/07 11:55:32;;;;;;;10.65;1.13;;;5.70;99.90;;;;;;5042608;28;20048;-81
2023/03/07 11:58:12;;;;;;;13.00;1.00;;;5.70;99.90;;;;;;5060350;28;20049;-79
2023/03/07 12:00:47;;;;;;;12.63;1.52;;;5.50;99.90;;;;;;5041564;28;20037;-82
2023/03/07 12:03:15;;;;;;;17.40;1.58;;;5.80;99.90;;;;;;5042292;28;20049;-80
2023/03/07 12:06:31;;;;;;;16.98;1.80;;;5.80;99.90;;;;;;5060741;28;20045;-81
2023/03/07 12:09:00;;;;;;;13.73;2.03;;;5.80;99.90;;;;;;4981583;28;20047;-81
2023/03/07 12:11:50;;;;;;;19.70;1.73;;;6.00;99.90;;;;;;4981799;28;20101;-81
2023/03/07 12:14:33;;;;;;;13.02;2.33;;;6.00;99.90;;;;;;5018960;28;20061;-80
2023/03/07 12:17:28;;;;;;;12.20;0.80;;;6.00;99.90;;;;;;5041267;28;20041;-82
2023/03/07 12:20:13;;;;;;;9.02;0.70;;;6.10;99.90;;;;;;5058376;28;20089;-83
2023/03/07 12:22:53;;;;;;;13.23;1.00;;;6.40;99.90;;;;;;5059862;28;20531;-79
2023/03/07 12:25:50;;;;;;;22.60;1.52;;;6.40;99.90;;;;;;5066196;28;20107;-77
2023/03/07 12:28:54;;;;;;;12.27;1.02;;;6.40;99.90;;;;;;5053400;28;20047;-80
2023/03/07 12:31:49;;;;;;;13.13;1.42;;;6.80;99.90;;;;;;5037195;28;20110;-80
2023/03/07 12:34:34;;;;;;;16.35;1.02;;;6.90;99.90;;;;;;5079669;28;20081;-80
2023/03/07 12:37:05;;;;;;;12.85;1.15;;;7.00;99.90;;;;;;5081933;28;20071;-80
2023/03/07 12:39:43;;;;;;;18.42;1.13;;;7.10;99.90;;;;;;5067205;28;20429;-82
2023/03/07 12:42:39;;;;;;;18.98;1.10;;;7.00;99.90;;;;;;5098550;28;20046;-76
2023/03/07 12:45:10;;;;;;;16.33;1.70;;;7.10;99.90;;;;;;5082026;28;20064;-77
2023/03/07 12:48:06;;;;;;;16.92;1.83;;;6.90;99.90;;;;;;5080344;28;20098;-81
2023/03/07 12:50:38;;;;;;;25.73;2.33;;;6.90;99.90;;;;;;5081342;28;20104;-80
2023/03/07 12:53:34;;;;;;;22.98;2.20;;;6.80;99.90;;;;;;5062556;28;20075;-76
2023/03/07 12:56:11;;;;;;;15.55;1.80;;;6.80;99.90;;;;;;5097089;28;20388;-75
2023/03/07 12:58:48;;;;;;;22.48;2.05;;;6.70;99.90;;;;;;5080116;28;20040;-78
2023/03/07 13:01:33;;;;;;;21.45;2.63;;;6.60;99.90;;;;;;5097015;28;20044;-76
2023/03/07 13:04:18;;;;;;;39.22;1.92;;;6.40;99.90;;;;;;5096913;28;20052;-77
2023/03/07 13:06:45;;;;;;;10.77;1.10;;;4.60;99.90;;;;;;5096668;28;20095;-80